Welcome to Northern Hawkes Bay. New Zealand.
PWS Header
      nz Flag



Hit Counter


W3C Valid W3C Valid logo


    Wairoa

Select any of the Stations below to visit their websites.










Historic Data from Weather Underground
Select the location of interest below. Wairoa is the default. Please have patience, this Data is slow to load in.
Northern Hawkes Bay Historical Data
Daily Summary for October 24, 2017 Units:  Metric    English   Both
« Previous Day
Next Day »
Daily Weekly Monthly Yearly Custom
  High: Low: Average:
Temperature: 22.6 °C 8.0 °C 14.9 °C
Dew Point: 12.7 °C 7.5 °C 10.1 °C
Humidity: 98% 41% 76%
Wind Speed: 13.4km/h 0.0km/h 3km/h
Wind Gust: 18.3km/h - -
Wind- - WSW
Pressure: 1009.4 hPa 1003.3 hPa -
Precipitation: 0.0 mm    
Historical Graphs
 
 
Tabular Data for October 24, 2017
Time Temperature Dew Point Pressure Wind Wind Speed Wind Gust Humidity Rainfall Rate (Hourly) solar
00:01 11.8 °C 10.1 °C 1003.9 hPa NNE 2.6 km/h 6.1 km/h 89% 0.0 mm 0 W/m2
00:06 11.8 °C 10.1 °C 1003.9 hPa NNE 2.6 km/h 6.1 km/h 89% 0.0 mm 0 W/m2
00:22 11.8 °C 9.9 °C 1003.9 hPa North 2.6 km/h 8.7 km/h 88% 0.0 mm 0 W/m2
00:27 11.8 °C 9.7 °C 1003.9 hPa North 3.5 km/h 7.2 km/h 87% 0.0 mm 0 W/m2
00:32 11.8 °C 9.7 °C 1003.9 hPa North 2.6 km/h 6.1 km/h 87% 0.0 mm 0 W/m2
00:37 11.8 °C 9.6 °C 1003.9 hPa North 5.0 km/h 8.7 km/h 86% 0.0 mm 0 W/m2
00:42 11.9 °C 9.6 °C 1003.9 hPa North 3.5 km/h 8.7 km/h 86% 0.0 mm 0 W/m2
00:47 11.9 °C 9.6 °C 1004.3 hPa North 5.0 km/h 8.7 km/h 86% 0.0 mm 0 W/m2
00:52 11.9 °C 9.4 °C 1003.9 hPa North 5.0 km/h 8.7 km/h 85% 0.0 mm 0 W/m2
00:57 12.0 °C 9.4 °C 1003.9 hPa North 5.0 km/h 8.7 km/h 84% 0.0 mm 0 W/m2
01:02 12.1 °C 9.5 °C 1003.9 hPa North 5.0 km/h 9.7 km/h 84% 0.0 mm 0 W/m2
01:07 12.4 °C 9.6 °C 1003.9 hPa NNW 3.5 km/h 9.7 km/h 83% 0.0 mm 0 W/m2
01:12 12.5 °C 9.5 °C 1003.9 hPa North 3.5 km/h 9.7 km/h 82% 0.0 mm 0 W/m2
01:17 12.5 °C 9.3 °C 1003.9 hPa North 3.5 km/h 8.7 km/h 81% 0.0 mm 0 W/m2
01:22 12.4 °C 9.2 °C 1003.9 hPa NNW 2.6 km/h 8.7 km/h 81% 0.0 mm 0 W/m2
01:27 12.3 °C 9.1 °C 1003.9 hPa North 2.6 km/h 8.7 km/h 81% 0.0 mm 0 W/m2
01:32 12.2 °C 9.2 °C 1003.9 hPa North 5.0 km/h 8.7 km/h 82% 0.0 mm 0 W/m2
01:37 12.2 °C 9.2 °C 1003.9 hPa North 2.6 km/h 8.7 km/h 82% 0.0 mm 0 W/m2
01:42 12.0 °C 9.0 °C 1003.9 hPa North 3.5 km/h 6.1 km/h 82% 0.0 mm 0 W/m2
01:47 11.8 °C 9.0 °C 1003.6 hPa North 1.1 km/h 6.1 km/h 83% 0.0 mm 0 W/m2
01:52 11.5 °C 8.9 °C 1003.9 hPa NNE 1.1 km/h 6.1 km/h 84% 0.0 mm 0 W/m2
01:57 11.2 °C 8.8 °C 1003.6 hPa North 1.1 km/h 3.5 km/h 85% 0.0 mm 0 W/m2
02:02 11.1 °C 8.7 °C 1003.6 hPa NNW 1.1 km/h 3.5 km/h 85% 0.0 mm 0 W/m2
02:07 10.9 °C 8.8 °C 1003.6 hPa NW 1.1 km/h 3.5 km/h 87% 0.0 mm 0 W/m2
02:12 10.7 °C 8.8 °C 1003.9 hPa NW 2.6 km/h 3.5 km/h 88% 0.0 mm 0 W/m2
02:17 10.5 °C 8.6 °C 1003.9 hPa NNW 1.1 km/h 3.5 km/h 88% 0.0 mm 0 W/m2
02:22 10.4 °C 8.7 °C 1003.9 hPa NNW 2.6 km/h 5.0 km/h 89% 0.0 mm 0 W/m2
02:27 10.4 °C 8.7 °C 1003.9 hPa NW 3.5 km/h 5.0 km/h 89% 0.0 mm 0 W/m2
02:32 10.5 °C 8.8 °C 1003.9 hPa NW 1.1 km/h 5.0 km/h 89% 0.0 mm 0 W/m2
02:37 10.3 °C 8.6 °C 1003.9 hPa NW 2.6 km/h 5.0 km/h 89% 0.0 mm 0 W/m2
02:42 10.2 °C 8.4 °C 1003.9 hPa Calm   3.5 km/h 89% 0.0 mm 0 W/m2
02:47 10.1 °C 8.4 °C 1004.3 hPa Calm   3.5 km/h 89% 0.0 mm 0 W/m2
02:52 9.8 °C 8.2 °C 1003.9 hPa Calm   2.6 km/h 90% 0.0 mm 0 W/m2
02:57 9.6 °C 8.1 °C 1003.9 hPa Calm   1.1 km/h 90% 0.0 mm 0 W/m2
03:02 9.6 °C 8.2 °C 1003.9 hPa NW 2.6 km/h 3.5 km/h 91% 0.0 mm 0 W/m2
03:07 9.5 °C 8.3 °C 1003.9 hPa NNW 1.1 km/h 5.0 km/h 92% 0.0 mm 0 W/m2
03:12 9.4 °C 8.3 °C 1003.9 hPa NW 1.1 km/h 5.0 km/h 93% 0.0 mm 0 W/m2
03:17 9.2 °C 8.3 °C 1003.9 hPa NW 1.1 km/h 3.5 km/h 94% 0.0 mm 0 W/m2
03:22 9.2 °C 8.3 °C 1003.9 hPa NW 1.1 km/h 2.6 km/h 94% 0.0 mm 0 W/m2
03:27 9.1 °C 8.2 °C 1003.9 hPa Calm   2.6 km/h 94% 0.0 mm 0 W/m2
03:32 9.0 °C 8.1 °C 1003.6 hPa Calm   2.6 km/h 94% 0.0 mm 0 W/m2
03:37 8.7 °C 8.1 °C 1003.6 hPa Calm     96% 0.0 mm 0 W/m2
03:42 8.7 °C 8.1 °C 1003.9 hPa Calm     96% 0.0 mm 0 W/m2
03:47 8.7 °C 8.1 °C 1003.9 hPa NW 1.1 km/h 2.6 km/h 96% 0.0 mm 0 W/m2
03:52 8.7 °C 8.1 °C 1003.6 hPa NW 2.6 km/h 3.5 km/h 96% 0.0 mm 0 W/m2
03:57 8.4 °C 7.8 °C 1003.6 hPa NW 1.1 km/h 3.5 km/h 96% 0.0 mm 0 W/m2
04:02 8.2 °C 7.8 °C 1003.6 hPa NW 1.1 km/h 3.5 km/h 97% 0.0 mm 0 W/m2
04:18 8.2 °C 7.8 °C 1003.6 hPa NW 2.6 km/h 5.0 km/h 97% 0.0 mm 0 W/m2
04:23 8.3 °C 7.8 °C 1003.6 hPa NW 2.6 km/h 5.0 km/h 97% 0.0 mm 0 W/m2
04:28 8.3 °C 7.8 °C 1003.6 hPa NW 2.6 km/h 5.0 km/h 97% 0.0 mm 0 W/m2
04:33 8.3 °C 7.8 °C 1003.6 hPa NW 1.1 km/h 5.0 km/h 97% 0.0 mm 0 W/m2
04:38 8.4 °C 7.9 °C 1003.6 hPa NW 2.6 km/h 5.0 km/h 97% 0.0 mm 0 W/m2
04:43 8.4 °C 7.9 °C 1003.6 hPa NW 3.5 km/h 6.1 km/h 97% 0.0 mm 0 W/m2
04:48 8.4 °C 7.8 °C 1003.6 hPa NW 3.5 km/h 6.1 km/h 96% 0.0 mm 0 W/m2
04:53 8.5 °C 7.9 °C 1003.6 hPa NW 5.0 km/h 7.2 km/h 96% 0.0 mm 0 W/m2
04:58 8.5 °C 7.9 °C 1003.6 hPa NW 3.5 km/h 7.2 km/h 96% 0.0 mm 0 W/m2
05:03 8.5 °C 7.9 °C 1003.6 hPa NW 2.6 km/h 7.2 km/h 96% 0.0 mm 0 W/m2
05:13 8.3 °C 7.7 °C 1003.3 hPa NNW 2.6 km/h 6.1 km/h 96% 0.0 mm 0 W/m2
05:18 8.1 °C 7.5 °C 1003.6 hPa NNW 3.5 km/h 6.1 km/h 96% 0.0 mm 0 W/m2
05:23 8.1 °C 7.5 °C 1003.3 hPa NNW 3.5 km/h 6.1 km/h 96% 0.0 mm 0 W/m2
05:29 8.1 °C 7.5 °C 1003.3 hPa NNW 3.5 km/h 6.1 km/h 96% 0.0 mm 0 W/m2
05:34 8.0 °C 7.6 °C 1003.3 hPa NNW 3.5 km/h 6.1 km/h 97% 0.0 mm 0 W/m2
05:39 8.0 °C 7.6 °C 1003.3 hPa NNW 5.0 km/h 7.2 km/h 97% 0.0 mm 0 W/m2
05:44 8.0 °C 7.6 °C 1003.3 hPa NNW 3.5 km/h 8.7 km/h 97% 0.0 mm 0 W/m2
05:50 8.0 °C 7.6 °C 1003.3 hPa NW 3.5 km/h 8.7 km/h 97% 0.0 mm 0 W/m2
05:56 8.1 °C 7.7 °C 1003.3 hPa NW 5.0 km/h 7.2 km/h 97% 0.0 mm 0 W/m2
06:01 8.2 °C 7.8 °C 1003.6 hPa NNW 3.5 km/h 8.7 km/h 97% 0.0 mm 0 W/m2
06:06 8.3 °C 7.8 °C 1003.6 hPa NW 2.6 km/h 8.7 km/h 97% 0.0 mm 0 W/m2
06:11 8.4 °C 7.9 °C 1003.6 hPa NW 3.5 km/h 7.2 km/h 97% 0.0 mm 0 W/m2
06:16 8.6 °C 8.2 °C 1003.6 hPa NW 5.0 km/h 7.2 km/h 97% 0.0 mm 1 W/m2
06:22 8.8 °C 8.2 °C 1003.6 hPa NW 5.0 km/h 7.2 km/h 96% 0.0 mm 3 W/m2
06:27 8.9 °C 8.2 °C 1003.6 hPa NNW 5.0 km/h 8.7 km/h 95% 0.0 mm 4 W/m2
06:37 9.1 °C 8.2 °C 1003.9 hPa NW 2.6 km/h 7.2 km/h 94% 0.0 mm 7 W/m2
06:42 9.1 °C 8.2 °C 1003.9 hPa NW 2.6 km/h 7.2 km/h 94% 0.0 mm 8 W/m2
06:47 9.2 °C 8.3 °C 1003.9 hPa NW 2.6 km/h 6.1 km/h 94% 0.0 mm 9 W/m2
06:52 9.3 °C 8.4 °C 1003.9 hPa NW 2.6 km/h 6.1 km/h 94% 0.0 mm 10 W/m2
06:57 9.3 °C 8.4 °C 1003.9 hPa NW 2.6 km/h 7.2 km/h 94% 0.0 mm 19 W/m2
07:02 9.3 °C 8.4 °C 1004.3 hPa NW 3.5 km/h 7.2 km/h 94% 0.0 mm 30 W/m2
07:07 9.4 °C 8.5 °C 1004.3 hPa NW 3.5 km/h 7.2 km/h 94% 0.0 mm 37 W/m2
07:12 9.4 °C 8.5 °C 1004.3 hPa NW 3.5 km/h 7.2 km/h 94% 0.0 mm 42 W/m2
07:17 9.5 °C 8.6 °C 1004.3 hPa NW 2.6 km/h 7.2 km/h 94% 0.0 mm 47 W/m2
07:22 9.5 °C 8.6 °C 1004.3 hPa NW 2.6 km/h 7.2 km/h 94% 0.0 mm 72 W/m2
07:27 9.8 °C 8.9 °C 1004.3 hPa NNW 3.5 km/h 7.2 km/h 94% 0.0 mm 50 W/m2
07:32 10.0 °C 8.9 °C 1004.3 hPa NNW 5.0 km/h 8.7 km/h 93% 0.0 mm 118 W/m2
07:38 10.8 °C 9.6 °C 1004.3 hPa NNW 5.0 km/h 8.7 km/h 92% 0.0 mm 134 W/m2
07:43 11.3 °C 9.6 °C 1004.3 hPa NW 5.0 km/h 8.7 km/h 89% 0.0 mm 140 W/m2
07:48 11.8 °C 9.6 °C 1004.6 hPa NW 3.5 km/h 8.7 km/h 86% 0.0 mm 150 W/m2
07:53 12.3 °C 9.5 °C 1004.6 hPa NW 5.0 km/h 9.7 km/h 83% 0.0 mm 159 W/m2
07:58 12.7 °C 9.7 °C 1004.6 hPa NW 6.1 km/h 9.7 km/h 82% 0.0 mm 170 W/m2
08:03 13.1 °C 9.7 °C 1005.0 hPa NNW 6.1 km/h 9.7 km/h 80% 0.0 mm 181 W/m2
08:08 13.7 °C 10.1 °C 1005.0 hPa North 2.6 km/h 9.7 km/h 79% 0.0 mm 187 W/m2
08:13 14.2 °C 10.2 °C 1005.0 hPa NNW 5.0 km/h 9.7 km/h 77% 0.0 mm 200 W/m2
08:18 14.2 °C 10.1 °C 1005.3 hPa NW 2.6 km/h 9.7 km/h 76% 0.0 mm 211 W/m2
08:23 14.4 °C 10.1 °C 1005.3 hPa NW 5.0 km/h 9.7 km/h 75% 0.0 mm 221 W/m2
08:33 15.2 °C 10.2 °C 1005.3 hPa NNW 8.7 km/h 14.8 km/h 72% 0.0 mm 241 W/m2
08:38 15.3 °C 10.1 °C 1005.6 hPa NNW 2.6 km/h 15.8 km/h 71% 0.0 mm 250 W/m2
08:43 15.6 °C 10.4 °C 1005.6 hPa NNW 3.5 km/h 15.8 km/h 71% 0.0 mm 261 W/m2
08:48 15.9 °C 10.2 °C 1005.3 hPa North 5.0 km/h 12.2 km/h 69% 0.0 mm 272 W/m2
08:53 16.2 °C 10.1 °C 1005.6 hPa North 3.5 km/h 12.2 km/h 67% 0.0 mm 285 W/m2
08:58 16.5 °C 9.9 °C 1005.6 hPa North 2.6 km/h 11.1 km/h 65% 0.0 mm 298 W/m2
09:03 16.7 °C 10.1 °C 1005.6 hPa NNW 3.5 km/h 11.1 km/h 65% 0.0 mm 308 W/m2
09:08 17.2 °C 10.6 °C 1005.6 hPa NNW 6.1 km/h 11.1 km/h 65% 0.0 mm 322 W/m2
09:13 17.7 °C 10.6 °C 1005.6 hPa North 3.5 km/h 11.1 km/h 63% 0.0 mm 336 W/m2
09:18 18.0 °C 10.6 °C 1005.6 hPa North 6.1 km/h 11.1 km/h 62% 0.0 mm 356 W/m2
09:23 18.0 °C 10.4 °C 1005.6 hPa North 7.2 km/h 11.1 km/h 61% 0.0 mm 367 W/m2
09:28 18.1 °C 10.2 °C 1005.6 hPa North 2.6 km/h 9.7 km/h 60% 0.0 mm 375 W/m2
09:33 18.4 °C 10.3 °C 1006.0 hPa NNW 3.5 km/h 12.2 km/h 59% 0.0 mm 388 W/m2
09:38 19.2 °C 10.7 °C 1006.0 hPa Calm   12.2 km/h 58% 0.0 mm 404 W/m2
09:43 20.0 °C 10.9 °C 1006.0 hPa NNW 1.1 km/h 7.2 km/h 56% 0.0 mm 421 W/m2
09:48 20.1 °C 10.5 °C 1006.0 hPa Calm   7.2 km/h 54% 0.0 mm 436 W/m2
09:53 20.4 °C 10.5 °C 1006.0 hPa NNW 2.6 km/h 6.1 km/h 53% 0.0 mm 450 W/m2
09:58 20.0 °C 10.2 °C 1006.0 hPa NNW 7.2 km/h 13.4 km/h 53% 0.0 mm 462 W/m2
10:03 19.8 °C 9.9 °C 1006.3 hPa West 1.1 km/h 13.4 km/h 53% 0.0 mm 473 W/m2
10:08 20.5 °C 10.6 °C 1006.0 hPa Calm   13.4 km/h 53% 0.0 mm 513 W/m2
10:13 20.4 °C 10.2 °C 1006.3 hPa WSW 11.1 km/h 17.2 km/h 52% 0.0 mm 209 W/m2
10:18 19.9 °C 10.6 °C 1006.0 hPa SW 1.1 km/h 17.2 km/h 55% 0.0 mm 146 W/m2
10:23 19.8 °C 10.5 °C 1006.0 hPa SSW 8.7 km/h 17.2 km/h 55% 0.0 mm 563 W/m2
10:28 19.6 °C 10.1 °C 1006.0 hPa SSW 2.6 km/h 14.8 km/h 54% 0.0 mm 569 W/m2
10:33 19.8 °C 10.2 °C 1006.3 hPa SSW 2.6 km/h 12.2 km/h 54% 0.0 mm 583 W/m2
10:38 20.2 °C 10.3 °C 1006.0 hPa South 5.0 km/h 11.1 km/h 53% 0.0 mm 590 W/m2
10:43 19.5 °C 9.9 °C 1006.3 hPa South 5.0 km/h 12.2 km/h 54% 0.0 mm 203 W/m2
10:48 18.5 °C 9.6 °C 1006.3 hPa South 7.2 km/h 14.8 km/h 56% 0.0 mm 168 W/m2
10:53 18.0 °C 9.6 °C 1006.3 hPa South 6.1 km/h 14.8 km/h 58% 0.0 mm 197 W/m2
10:58 17.8 °C 9.7 °C 1006.3 hPa South 6.1 km/h 14.8 km/h 59% 0.0 mm 235 W/m2
11:03 17.9 °C 10.3 °C 1006.3 hPa South 7.2 km/h 14.8 km/h 61% 0.0 mm 232 W/m2
11:21 19.0 °C 10.3 °C 1006.0 hPa South 9.7 km/h 12.2 km/h 57% 0.0 mm 699 W/m2
11:26 19.1 °C 10.4 °C 1006.3 hPa South 5.0 km/h 12.2 km/h 57% 0.0 mm 711 W/m2
11:31 19.1 °C 10.1 °C 1006.3 hPa South 8.7 km/h 18.3 km/h 56% 0.0 mm 724 W/m2
11:36 19.3 °C 10.1 °C 1006.3 hPa South 8.7 km/h 18.3 km/h 55% 0.0 mm 366 W/m2
11:41 19.2 °C 10.2 °C 1006.3 hPa South 9.7 km/h 15.8 km/h 56% 0.0 mm 770 W/m2
11:46 19.3 °C 10.3 °C 1006.3 hPa South 11.1 km/h 17.2 km/h 56% 0.0 mm 811 W/m2
11:51 19.2 °C 9.9 °C 1006.3 hPa South 3.5 km/h 17.2 km/h 55% 0.0 mm 873 W/m2
11:56 19.1 °C 9.3 °C 1006.3 hPa South 6.1 km/h 17.2 km/h 53% 0.0 mm 796 W/m2
12:01 19.7 °C 10.2 °C 1006.3 hPa South 13.4 km/h 17.2 km/h 54% 0.0 mm 732 W/m2
12:06 19.0 °C 9.2 °C 1006.3 hPa SSW 13.4 km/h 17.2 km/h 53% 0.0 mm 817 W/m2
12:11 19.0 °C 9.5 °C 1006.3 hPa SSW 6.1 km/h 17.2 km/h 54% 0.0 mm 784 W/m2
12:16 19.3 °C 9.8 °C 1006.3 hPa SSW 8.7 km/h 17.2 km/h 54% 0.0 mm 795 W/m2
12:21 19.5 °C 10.2 °C 1006.3 hPa SSW 8.7 km/h 15.8 km/h 55% 0.0 mm 801 W/m2
12:26 19.5 °C 9.9 °C 1006.7 hPa South 7.2 km/h 13.4 km/h 54% 0.0 mm 800 W/m2
12:31 19.4 °C 9.9 °C 1006.3 hPa SSW 3.5 km/h 15.8 km/h 54% 0.0 mm 801 W/m2
12:36 19.5 °C 10.2 °C 1006.3 hPa SSW 5.0 km/h 15.8 km/h 55% 0.0 mm 802 W/m2
12:41 19.6 °C 10.3 °C 1006.3 hPa SSW 11.1 km/h 15.8 km/h 55% 0.0 mm 801 W/m2
12:46 19.7 °C 10.2 °C 1006.3 hPa South 6.1 km/h 14.8 km/h 54% 0.0 mm 800 W/m2
12:51 19.5 °C 10.2 °C 1006.3 hPa South 12.2 km/h 18.3 km/h 55% 0.0 mm 795 W/m2
12:56 18.9 °C 9.7 °C 1006.7 hPa South 8.7 km/h 18.3 km/h 55% 0.0 mm 790 W/m2
13:01 19.2 °C 9.7 °C 1006.3 hPa SSE 3.5 km/h 14.8 km/h 54% 0.0 mm 787 W/m2
13:06 19.2 °C 9.4 °C 1006.3 hPa South 8.7 km/h 14.8 km/h 53% 0.0 mm 786 W/m2
13:11 19.4 °C 9.9 °C 1006.3 hPa South 6.1 km/h 14.8 km/h 54% 0.0 mm 784 W/m2
13:16 19.5 °C 9.9 °C 1006.7 hPa South 7.2 km/h 15.8 km/h 54% 0.0 mm 781 W/m2
13:21 19.5 °C 10.2 °C 1006.7 hPa SSW 8.7 km/h 15.8 km/h 55% 0.0 mm 775 W/m2
13:26 19.3 °C 10.1 °C 1006.7 hPa South 7.2 km/h 17.2 km/h 55% 0.0 mm 768 W/m2
13:31 19.5 °C 9.7 °C 1006.7 hPa South 9.7 km/h 17.2 km/h 53% 0.0 mm 763 W/m2
13:36 19.3 °C 9.5 °C 1006.7 hPa South 9.7 km/h 14.8 km/h 53% 0.0 mm 754 W/m2
13:41 19.6 °C 8.6 °C 1006.7 hPa South 8.7 km/h 14.8 km/h 49% 0.0 mm 748 W/m2
13:46 19.4 °C 8.7 °C 1006.7 hPa South 3.5 km/h 12.2 km/h 50% 0.0 mm 742 W/m2
13:51 19.7 °C 9.9 °C 1006.7 hPa South 2.6 km/h 12.2 km/h 53% 0.0 mm 734 W/m2
13:56 19.9 °C 9.8 °C 1006.7 hPa SSE 5.0 km/h 9.7 km/h 52% 0.0 mm 727 W/m2
14:01 20.1 °C 8.8 °C 1006.7 hPa SE 2.6 km/h 9.7 km/h 48% 0.0 mm 718 W/m2
14:06 20.1 °C 8.1 °C 1006.7 hPa SSE 3.5 km/h 13.4 km/h 46% 0.0 mm 639 W/m2
14:11 20.0 °C 8.7 °C 1006.7 hPa SSW 6.1 km/h 14.8 km/h 48% 0.0 mm 580 W/m2
14:17 20.1 °C 8.4 °C 1006.7 hPa South 6.1 km/h 14.8 km/h 47% 0.0 mm 686 W/m2
14:22 20.1 °C 8.8 °C 1006.7 hPa SSW 1.1 km/h 12.2 km/h 48% 0.0 mm 674 W/m2
14:27 20.3 °C 9.6 °C 1006.7 hPa SSW 5.0 km/h 12.2 km/h 50% 0.0 mm 661 W/m2
14:32 20.9 °C 10.1 °C 1006.7 hPa South 1.1 km/h 9.7 km/h 50% 0.0 mm 656 W/m2
14:37 21.3 °C 9.2 °C 1006.7 hPa SE 3.5 km/h 9.7 km/h 46% 0.0 mm 642 W/m2
14:42 21.2 °C 8.8 °C 1006.7 hPa ESE 2.6 km/h 9.7 km/h 45% 0.0 mm 632 W/m2
14:47 21.7 °C 9.3 °C 1006.3 hPa ESE 8.7 km/h 12.2 km/h 45% 0.0 mm 629 W/m2
14:52 20.7 °C 8.0 °C 1006.7 hPa East 5.0 km/h 12.2 km/h 44% 0.0 mm 617 W/m2
14:57 21.2 °C 8.5 °C 1006.7 hPa Calm   12.2 km/h 44% 0.0 mm 619 W/m2
15:02 22.3 °C 8.4 °C 1006.7 hPa Calm   8.7 km/h 41% 0.0 mm 596 W/m2
15:07 22.5 °C 8.6 °C 1006.7 hPa Calm   9.7 km/h 41% 0.0 mm 591 W/m2
15:12 22.6 °C 8.7 °C 1006.3 hPa SE 3.5 km/h 9.7 km/h 41% 0.0 mm 389 W/m2
15:17 21.6 °C 8.5 °C 1006.7 hPa South 1.1 km/h 9.7 km/h 43% 0.0 mm 707 W/m2
15:22 21.6 °C 9.2 °C 1007.0 hPa South 6.1 km/h 9.7 km/h 45% 0.0 mm 240 W/m2
15:27 20.9 °C 9.5 °C 1006.7 hPa SSE 5.0 km/h 12.2 km/h 48% 0.0 mm 592 W/m2
15:32 20.6 °C 9.8 °C 1006.7 hPa SE 2.6 km/h 13.4 km/h 50% 0.0 mm 398 W/m2
15:37 21.2 °C 10.1 °C 1006.7 hPa SE 5.0 km/h 13.4 km/h 49% 0.0 mm 215 W/m2
15:42 20.9 °C 10.4 °C 1006.7 hPa SE 5.0 km/h 13.4 km/h 51% 0.0 mm 491 W/m2
16:00 20.1 °C 10.8 °C 1006.7 hPa SSE 6.1 km/h 15.8 km/h 55% 0.0 mm 482 W/m2
16:05 20.3 °C 11.0 °C 1006.7 hPa SSE 7.2 km/h 12.2 km/h 55% 0.0 mm 479 W/m2
16:10 20.9 °C 11.6 °C 1006.7 hPa SSE 3.5 km/h 11.1 km/h 55% 0.0 mm 192 W/m2
16:17 19.1 °C 12.2 °C 1006.7 hPa SE 3.5 km/h 11.1 km/h 64% 0.0 mm 171 W/m2
16:22 18.6 °C 12.4 °C 1006.7 hPa SE 7.2 km/h 11.1 km/h 67% 0.0 mm 397 W/m2
16:27 19.5 °C 12.5 °C 1006.7 hPa SE 6.1 km/h 14.8 km/h 64% 0.0 mm 443 W/m2
16:31 19.7 °C 12.4 °C 1006.7 hPa SE 5.0 km/h 14.8 km/h 63% 0.0 mm 440 W/m2
16:36 20.1 °C 12.1 °C 1007.0 hPa SE 5.0 km/h 14.8 km/h 60% 0.0 mm 470 W/m2
16:41 20.1 °C 11.1 °C 1006.7 hPa SSE 3.5 km/h 13.4 km/h 56% 0.0 mm 443 W/m2
16:46 20.2 °C 11.4 °C 1007.0 hPa SSE 3.5 km/h 13.4 km/h 57% 0.0 mm 198 W/m2
16:51 19.2 °C 11.0 °C 1007.0 hPa SSE 2.6 km/h 11.1 km/h 59% 0.0 mm 171 W/m2
16:56 18.5 °C 11.3 °C 1006.7 hPa SE 3.5 km/h 9.7 km/h 63% 0.0 mm 164 W/m2
17:01 18.3 °C 11.2 °C 1006.7 hPa SE 1.1 km/h 8.7 km/h 63% 0.0 mm 343 W/m2
17:06 19.5 °C 11.6 °C 1006.7 hPa SE 1.1 km/h 9.7 km/h 60% 0.0 mm 317 W/m2
17:11 20.3 °C 11.5 °C 1006.7 hPa Calm   9.7 km/h 57% 0.0 mm 290 W/m2
17:16 20.7 °C 11.6 °C 1006.7 hPa Calm   7.2 km/h 56% 0.0 mm 288 W/m2
17:21 21.2 °C 11.3 °C 1006.7 hPa Calm   7.2 km/h 53% 0.0 mm 262 W/m2
17:26 21.3 °C 11.3 °C 1006.7 hPa Calm   5.0 km/h 53% 0.0 mm 250 W/m2
17:31 20.8 °C 11.4 °C 1006.7 hPa Calm   11.1 km/h 55% 0.0 mm 235 W/m2
17:36 20.1 °C 10.8 °C 1006.7 hPa SE 3.5 km/h 11.1 km/h 55% 0.0 mm 78 W/m2
17:41 18.2 °C 10.3 °C 1006.7 hPa SE 3.5 km/h 8.7 km/h 60% 0.0 mm 73 W/m2
17:46 17.4 °C 10.3 °C 1007.0 hPa Calm   8.7 km/h 63% 0.0 mm 88 W/m2
17:51 17.2 °C 10.6 °C 1007.0 hPa Calm   7.2 km/h 65% 0.0 mm 82 W/m2
17:56 17.0 °C 11.1 °C 1007.0 hPa SE 1.1 km/h 9.7 km/h 68% 0.0 mm 75 W/m2
18:01 16.7 °C 11.4 °C 1007.0 hPa Calm   9.7 km/h 71% 0.0 mm 68 W/m2
18:06 16.6 °C 11.6 °C 1007.3 hPa SE 1.1 km/h 6.1 km/h 72% 0.0 mm 67 W/m2
18:11 16.5 °C 11.7 °C 1007.3 hPa Calm   5.0 km/h 73% 0.0 mm 52 W/m2
18:16 16.4 °C 11.6 °C 1007.3 hPa Calm   5.0 km/h 73% 0.0 mm 47 W/m2
18:21 16.3 °C 11.4 °C 1007.3 hPa Calm   7.2 km/h 73% 0.0 mm 54 W/m2
18:26 16.3 °C 11.7 °C 1007.3 hPa Calm   7.2 km/h 74% 0.0 mm 52 W/m2
18:31 16.3 °C 11.7 °C 1007.3 hPa SE 2.6 km/h 6.1 km/h 74% 0.0 mm 56 W/m2
18:36 16.2 °C 11.6 °C 1007.3 hPa Calm   6.1 km/h 74% 0.0 mm 49 W/m2
18:41 16.2 °C 11.8 °C 1007.3 hPa Calm   5.0 km/h 75% 0.0 mm 37 W/m2
18:46 16.0 °C 11.6 °C 1007.3 hPa ESE 1.1 km/h 6.1 km/h 75% 0.0 mm 38 W/m2
18:51 15.9 °C 11.7 °C 1007.3 hPa Calm   6.1 km/h 76% 0.0 mm 32 W/m2
18:56 15.9 °C 11.9 °C 1007.7 hPa Calm   5.0 km/h 77% 0.0 mm 29 W/m2
19:01 15.8 °C 12.0 °C 1007.3 hPa SSE 2.6 km/h 7.2 km/h 78% 0.0 mm 16 W/m2
19:06 15.6 °C 11.6 °C 1007.7 hPa Calm   7.2 km/h 77% 0.0 mm 10 W/m2
19:11 15.5 °C 11.7 °C 1007.7 hPa SSE 1.1 km/h 7.2 km/h 78% 0.0 mm 7 W/m2
19:16 15.5 °C 11.7 °C 1007.7 hPa Calm   6.1 km/h 78% 0.0 mm 5 W/m2
19:21 15.4 °C 11.8 °C 1007.7 hPa Calm   6.1 km/h 79% 0.0 mm 3 W/m2
19:26 15.3 °C 11.7 °C 1007.7 hPa Calm   5.0 km/h 79% 0.0 mm 1 W/m2
19:31 15.2 °C 11.4 °C 1008.0 hPa Calm   3.5 km/h 78% 0.0 mm 0 W/m2
19:36 15.2 °C 11.4 °C 1008.0 hPa Calm   5.0 km/h 78% 0.0 mm 0 W/m2
19:41 15.2 °C 11.4 °C 1008.4 hPa Calm   5.0 km/h 78% 0.0 mm 0 W/m2
19:46 15.3 °C 11.5 °C 1008.0 hPa Calm   2.6 km/h 78% 0.0 mm 0 W/m2
19:51 15.2 °C 11.6 °C 1008.4 hPa Calm   2.6 km/h 79% 0.0 mm 0 W/m2
19:56 15.1 °C 11.5 °C 1008.0 hPa Calm   2.6 km/h 79% 0.0 mm 0 W/m2
20:01 15.1 °C 11.7 °C 1008.0 hPa Calm     80% 0.0 mm 0 W/m2
20:06 15.0 °C 11.8 °C 1008.0 hPa Calm   1.1 km/h 81% 0.0 mm 0 W/m2
20:11 15.0 °C 11.9 °C 1008.4 hPa Calm   1.1 km/h 82% 0.0 mm 0 W/m2
20:16 15.0 °C 12.2 °C 1008.0 hPa Calm   1.1 km/h 83% 0.0 mm 0 W/m2
20:21 14.9 °C 12.2 °C 1008.4 hPa Calm   1.1 km/h 84% 0.0 mm 0 W/m2
20:26 14.7 °C 12.1 °C 1008.4 hPa Calm     84% 0.0 mm 0 W/m2
20:32 14.6 °C 11.9 °C 1008.4 hPa Calm     84% 0.0 mm 0 W/m2
20:37 14.6 °C 12.1 °C 1008.4 hPa Calm     85% 0.0 mm 0 W/m2
20:42 14.6 °C 12.1 °C 1008.4 hPa Calm     85% 0.0 mm 0 W/m2
20:49 14.5 °C 12.2 °C 1008.4 hPa Calm     86% 0.0 mm 0 W/m2
20:54 14.4 °C 12.3 °C 1008.7 hPa Calm     87% 0.0 mm 0 W/m2
20:59 14.3 °C 12.2 °C 1008.7 hPa Calm     87% 0.0 mm 0 W/m2
21:04 14.3 °C 12.2 °C 1008.7 hPa Calm     87% 0.0 mm 0 W/m2
21:09 14.2 °C 11.9 °C 1008.7 hPa Calm     86% 0.0 mm 0 W/m2
21:14 14.2 °C 12.1 °C 1008.7 hPa Calm     87% 0.0 mm 0 W/m2
21:19 14.2 °C 12.2 °C 1008.7 hPa Calm     88% 0.0 mm 0 W/m2
21:24 14.1 °C 12.3 °C 1008.7 hPa Calm     89% 0.0 mm 0 W/m2
21:29 13.9 °C 12.3 °C 1008.7 hPa Calm     90% 0.0 mm 0 W/m2
21:34 13.9 °C 12.4 °C 1008.7 hPa Calm     91% 0.0 mm 0 W/m2
21:39 13.9 °C 12.6 °C 1008.7 hPa Calm     92% 0.0 mm 0 W/m2
21:44 13.6 °C 12.5 °C 1008.7 hPa Calm   1.1 km/h 93% 0.0 mm 0 W/m2
21:49 13.6 °C 12.7 °C 1008.7 hPa Calm   1.1 km/h 94% 0.0 mm 0 W/m2
21:54 13.6 °C 12.7 °C 1009.0 hPa Calm     94% 0.0 mm 0 W/m2
21:59 13.5 °C 12.6 °C 1009.0 hPa Calm     94% 0.0 mm 0 W/m2
22:05 13.4 °C 12.6 °C 1009.0 hPa Calm   2.6 km/h 95% 0.0 mm 0 W/m2
22:10 13.4 °C 12.6 °C 1009.0 hPa Calm   2.6 km/h 95% 0.0 mm 0 W/m2
22:15 13.3 °C 12.7 °C 1009.0 hPa Calm   3.5 km/h 96% 0.0 mm 0 W/m2
22:20 13.2 °C 12.6 °C 1009.0 hPa Calm   3.5 km/h 96% 0.0 mm 0 W/m2
22:25 13.1 °C 12.5 °C 1009.0 hPa Calm     96% 0.0 mm 0 W/m2
22:30 13.0 °C 12.4 °C 1009.0 hPa Calm     96% 0.0 mm 0 W/m2
22:35 13.0 °C 12.4 °C 1009.0 hPa Calm     96% 0.0 mm 0 W/m2
22:40 12.9 °C 12.3 °C 1009.0 hPa Calm     96% 0.0 mm 0 W/m2
22:45 12.8 °C 12.2 °C 1009.0 hPa Calm     96% 0.0 mm 0 W/m2
22:50 12.7 °C 12.1 °C 1009.0 hPa Calm     96% 0.0 mm 0 W/m2
22:55 12.6 °C 12.0 °C 1009.0 hPa Calm     96% 0.0 mm 0 W/m2
23:00 12.7 °C 12.2 °C 1009.0 hPa North 1.1 km/h 2.6 km/h 97% 0.0 mm 0 W/m2
23:05 12.6 °C 12.2 °C 1009.0 hPa Calm   3.5 km/h 97% 0.0 mm 0 W/m2
23:10 12.5 °C 12.1 °C 1009.0 hPa Calm   3.5 km/h 97% 0.0 mm 0 W/m2
23:15 12.5 °C 12.1 °C 1009.0 hPa Calm   2.6 km/h 97% 0.0 mm 0 W/m2
23:20 12.3 °C 11.8 °C 1009.0 hPa Calm   2.6 km/h 97% 0.0 mm 0 W/m2
23:25 12.3 °C 11.8 °C 1009.0 hPa North 1.1 km/h 3.5 km/h 97% 0.0 mm 0 W/m2
23:30 12.2 °C 11.7 °C 1009.0 hPa Calm   3.5 km/h 97% 0.0 mm 0 W/m2
23:35 12.1 °C 11.7 °C 1009.0 hPa Calm   3.5 km/h 97% 0.0 mm 0 W/m2
23:40 12.0 °C 11.6 °C 1009.0 hPa NNW 1.1 km/h 3.5 km/h 97% 0.0 mm 0 W/m2
23:45 11.9 °C 11.6 °C 1009.0 hPa North 1.1 km/h 3.5 km/h 98% 0.0 mm 0 W/m2
23:50 11.8 °C 11.5 °C 1009.4 hPa Calm   3.5 km/h 98% 0.0 mm 0 W/m2
23:56 11.6 °C 11.3 °C 1009.0 hPa Calm   3.5 km/h 98% 0.0 mm 0 W/m2
Northern Hawkes Bay. New Zealand Historic Data
Compliments of Weather Underground - 2 mb